KSVH/SVH METAR and TAF weather

Enter ICAO airport designator
Station Type Date Time Source
KSVH METAR 2020/01/27 16:55 UTC NOAA

KSVH 271655Z AUTO 21003KT 10SM SCT041 BKN050 BKN075 08/02 A2986 RMK AO2 T00750019


Station Type Date Time Source
KSVH Decoded METAR 2020/01/27 16:55 UTC NOAA

Statesville, Statesville Municipal Airport, NC, United States (KSVH) 35-45-55N 080-57-24W
Jan 27, 2020 - 11:55 AM EST / 2020.01.27 1655 UTC
Wind: from the SSW (210 degrees) at 3 MPH (3 KT):0
Visibility: 10 mile(s):0
Sky conditions: mostly cloudy
Temperature: 45.5 F (7.5 C)
Dew Point: 35.4 F (1.9 C)
Relative Humidity: 67%
Pressure (altimeter): 29.86 in. Hg (1011 hPa)
ob: KSVH 271655Z AUTO 21003KT 10SM SCT041 BKN050 BKN075 08/02 A2986 RMK AO2 T00750019
cycle: 17

Station Type Date Time Source
KSVH TAF UTC NOAA

Error!

Example: see airport list